sensor_id;sensor_type;location;lat;lon;timestamp;P1;durP1;ratioP1;P2;durP2;ratioP2
2644;SDS011;15377;48.540;9.268;2023-09-19T00:00:23;5.50;;;1.80;;
2644;SDS011;15377;48.540;9.268;2023-09-19T00:02:57;5.73;;;1.70;;
2644;SDS011;15377;48.540;9.268;2023-09-19T00:05:26;8.80;;;2.17;;
2644;SDS011;15377;48.540;9.268;2023-09-19T00:07:53;5.70;;;1.90;;
2644;SDS011;15377;48.540;9.268;2023-09-19T00:10:21;5.90;;;1.97;;
2644;SDS011;15377;48.540;9.268;2023-09-19T00:12:49;6.50;;;1.57;;
2644;SDS011;15377;48.540;9.268;2023-09-19T00:15:16;6.00;;;1.87;;
2644;SDS011;15377;48.540;9.268;2023-09-19T00:17:43;5.40;;;1.57;;
2644;SDS011;15377;48.540;9.268;2023-09-19T00:20:08;6.40;;;1.90;;
2644;SDS011;15377;48.540;9.268;2023-09-19T00:22:41;5.17;;;1.47;;
2644;SDS011;15377;48.540;9.268;2023-09-19T00:25:10;6.40;;;1.67;;
2644;SDS011;15377;48.540;9.268;2023-09-19T00:27:37;6.00;;;1.70;;
2644;SDS011;15377;48.540;9.268;2023-09-19T00:30:11;5.93;;;1.60;;
2644;SDS011;15377;48.540;9.268;2023-09-19T00:32:49;5.80;;;1.80;;
2644;SDS011;15377;48.540;9.268;2023-09-19T00:35:19;5.40;;;1.50;;
2644;SDS011;15377;48.540;9.268;2023-09-19T00:37:46;6.83;;;1.80;;
2644;SDS011;15377;48.540;9.268;2023-09-19T00:40:11;5.60;;;1.60;;
2644;SDS011;15377;48.540;9.268;2023-09-19T00:42:40;5.23;;;1.43;;
2644;SDS011;15377;48.540;9.268;2023-09-19T00:45:16;5.50;;;1.47;;
2644;SDS011;15377;48.540;9.268;2023-09-19T00:47:44;5.70;;;1.63;;
2644;SDS011;15377;48.540;9.268;2023-09-19T00:50:11;5.77;;;1.87;;
2644;SDS011;15377;48.540;9.268;2023-09-19T00:52:39;6.90;;;2.67;;
2644;SDS011;15377;48.540;9.268;2023-09-19T00:55:07;5.60;;;1.60;;
2644;SDS011;15377;48.540;9.268;2023-09-19T00:57:34;7.63;;;1.70;;
2644;SDS011;15377;48.540;9.268;2023-09-19T01:00:00;5.90;;;1.73;;
2644;SDS011;15377;48.540;9.268;2023-09-19T01:02:31;5.47;;;1.57;;
2644;SDS011;15377;48.540;9.268;2023-09-19T01:04:57;5.60;;;1.37;;
2644;SDS011;15377;48.540;9.268;2023-09-19T01:07:24;6.50;;;1.77;;
2644;SDS011;15377;48.540;9.268;2023-09-19T01:09:49;5.63;;;1.87;;
2644;SDS011;15377;48.540;9.268;2023-09-19T01:12:16;5.60;;;1.53;;
2644;SDS011;15377;48.540;9.268;2023-09-19T01:15:06;6.33;;;2.10;;
2644;SDS011;15377;48.540;9.268;2023-09-19T01:17:57;7.63;;;1.93;;
2644;SDS011;15377;48.540;9.268;2023-09-19T01:28:31;5.40;;;1.50;;
2644;SDS011;15377;48.540;9.268;2023-09-19T01:31:03;5.97;;;1.80;;
2644;SDS011;15377;48.540;9.268;2023-09-19T01:36:25;6.00;;;1.80;;
2644;SDS011;15377;48.540;9.268;2023-09-19T01:38:51;5.67;;;1.90;;
2644;SDS011;15377;48.540;9.268;2023-09-19T01:41:20;5.60;;;1.60;;
2644;SDS011;15377;48.540;9.268;2023-09-19T01:43:52;6.03;;;1.73;;
2644;SDS011;15377;48.540;9.268;2023-09-19T01:46:21;6.50;;;1.70;;
2644;SDS011;15377;48.540;9.268;2023-09-19T01:51:43;6.90;;;2.13;;
2644;SDS011;15377;48.540;9.268;2023-09-19T01:54:16;7.07;;;1.80;;
2644;SDS011;15377;48.540;9.268;2023-09-19T01:56:48;7.10;;;2.07;;
2644;SDS011;15377;48.540;9.268;2023-09-19T01:59:21;7.40;;;1.60;;
2644;SDS011;15377;48.540;9.268;2023-09-19T02:01:52;5.70;;;1.80;;
2644;SDS011;15377;48.540;9.268;2023-09-19T02:04:19;6.00;;;1.90;;
2644;SDS011;15377;48.540;9.268;2023-09-19T02:06:44;5.90;;;1.93;;
2644;SDS011;15377;48.540;9.268;2023-09-19T02:09:12;6.60;;;2.20;;
2644;SDS011;15377;48.540;9.268;2023-09-19T02:11:39;6.60;;;2.30;;
2644;SDS011;15377;48.540;9.268;2023-09-19T02:14:04;5.90;;;1.90;;
2644;SDS011;15377;48.540;9.268;2023-09-19T02:16:33;6.40;;;2.10;;
2644;SDS011;15377;48.540;9.268;2023-09-19T02:18:59;6.10;;;1.90;;
2644;SDS011;15377;48.540;9.268;2023-09-19T02:21:25;6.37;;;2.07;;
2644;SDS011;15377;48.540;9.268;2023-09-19T02:23:50;6.20;;;2.10;;
2644;SDS011;15377;48.540;9.268;2023-09-19T02:26:16;5.80;;;2.10;;
2644;SDS011;15377;48.540;9.268;2023-09-19T02:28:43;6.63;;;1.80;;
2644;SDS011;15377;48.540;9.268;2023-09-19T02:31:10;6.53;;;2.13;;
2644;SDS011;15377;48.540;9.268;2023-09-19T02:33:36;6.40;;;2.40;;
2644;SDS011;15377;48.540;9.268;2023-09-19T02:36:02;6.03;;;2.30;;
2644;SDS011;15377;48.540;9.268;2023-09-19T02:38:28;6.80;;;2.53;;
2644;SDS011;15377;48.540;9.268;2023-09-19T02:40:54;5.80;;;1.83;;
2644;SDS011;15377;48.540;9.268;2023-09-19T02:43:20;6.23;;;1.90;;
2644;SDS011;15377;48.540;9.268;2023-09-19T02:45:49;6.67;;;2.60;;
2644;SDS011;15377;48.540;9.268;2023-09-19T02:48:18;6.47;;;2.20;;
2644;SDS011;15377;48.540;9.268;2023-09-19T02:50:44;6.30;;;2.43;;
2644;SDS011;15377;48.540;9.268;2023-09-19T02:53:10;5.77;;;1.93;;
2644;SDS011;15377;48.540;9.268;2023-09-19T02:55:39;6.43;;;2.20;;
2644;SDS011;15377;48.540;9.268;2023-09-19T02:58:05;7.40;;;1.93;;
2644;SDS011;15377;48.540;9.268;2023-09-19T03:00:33;6.53;;;2.20;;
2644;SDS011;15377;48.540;9.268;2023-09-19T03:03:00;7.30;;;2.23;;
2644;SDS011;15377;48.540;9.268;2023-09-19T03:05:27;6.00;;;2.10;;
2644;SDS011;15377;48.540;9.268;2023-09-19T03:07:55;6.50;;;2.07;;
2644;SDS011;15377;48.540;9.268;2023-09-19T03:10:22;6.10;;;2.30;;
2644;SDS011;15377;48.540;9.268;2023-09-19T03:12:49;6.50;;;2.40;;
2644;SDS011;15377;48.540;9.268;2023-09-19T03:15:15;5.93;;;2.17;;
2644;SDS011;15377;48.540;9.268;2023-09-19T03:17:43;5.80;;;2.10;;
2644;SDS011;15377;48.540;9.268;2023-09-19T03:20:12;6.00;;;2.03;;
2644;SDS011;15377;48.540;9.268;2023-09-19T03:22:42;6.47;;;2.20;;
2644;SDS011;15377;48.540;9.268;2023-09-19T03:25:08;6.20;;;2.30;;
2644;SDS011;15377;48.540;9.268;2023-09-19T03:27:34;6.80;;;2.27;;
2644;SDS011;15377;48.540;9.268;2023-09-19T03:30:00;6.73;;;2.50;;
2644;SDS011;15377;48.540;9.268;2023-09-19T03:32:25;6.40;;;2.30;;
2644;SDS011;15377;48.540;9.268;2023-09-19T03:34:51;6.53;;;2.30;;
2644;SDS011;15377;48.540;9.268;2023-09-19T03:37:17;7.43;;;2.53;;
2644;SDS011;15377;48.540;9.268;2023-09-19T03:39:43;9.07;;;2.30;;
2644;SDS011;15377;48.540;9.268;2023-09-19T03:42:08;6.33;;;2.10;;
2644;SDS011;15377;48.540;9.268;2023-09-19T03:44:34;6.37;;;2.47;;
2644;SDS011;15377;48.540;9.268;2023-09-19T03:46:59;6.33;;;2.47;;
2644;SDS011;15377;48.540;9.268;2023-09-19T03:49:25;6.40;;;2.23;;
2644;SDS011;15377;48.540;9.268;2023-09-19T03:51:50;6.77;;;2.67;;
2644;SDS011;15377;48.540;9.268;2023-09-19T03:54:15;7.93;;;2.50;;
2644;SDS011;15377;48.540;9.268;2023-09-19T03:56:42;7.33;;;2.30;;
2644;SDS011;15377;48.540;9.268;2023-09-19T03:59:08;7.07;;;2.47;;
2644;SDS011;15377;48.540;9.268;2023-09-19T04:01:34;6.30;;;2.37;;
2644;SDS011;15377;48.540;9.268;2023-09-19T04:04:00;5.60;;;1.90;;
2644;SDS011;15377;48.540;9.268;2023-09-19T04:06:33;5.80;;;1.90;;
2644;SDS011;15377;48.540;9.268;2023-09-19T04:09:00;7.23;;;2.53;;
2644;SDS011;15377;48.540;9.268;2023-09-19T04:11:25;6.30;;;2.10;;
2644;SDS011;15377;48.540;9.268;2023-09-19T04:13:50;8.00;;;2.27;;
2644;SDS011;15377;48.540;9.268;2023-09-19T04:16:16;6.93;;;2.80;;
2644;SDS011;15377;48.540;9.268;2023-09-19T04:18:41;5.90;;;2.30;;
2644;SDS011;15377;48.540;9.268;2023-09-19T04:21:06;6.10;;;2.20;;
2644;SDS011;15377;48.540;9.268;2023-09-19T04:23:32;6.10;;;2.33;;
2644;SDS011;15377;48.540;9.268;2023-09-19T04:25:58;6.40;;;2.80;;
2644;SDS011;15377;48.540;9.268;2023-09-19T04:28:23;6.53;;;2.67;;
2644;SDS011;15377;48.540;9.268;2023-09-19T04:30:49;7.50;;;2.73;;
2644;SDS011;15377;48.540;9.268;2023-09-19T04:33:14;6.83;;;2.47;;
2644;SDS011;15377;48.540;9.268;2023-09-19T04:35:40;6.40;;;2.47;;
2644;SDS011;15377;48.540;9.268;2023-09-19T04:38:07;8.67;;;2.93;;
2644;SDS011;15377;48.540;9.268;2023-09-19T04:40:35;6.57;;;2.60;;
2644;SDS011;15377;48.540;9.268;2023-09-19T04:43:00;7.73;;;3.00;;
2644;SDS011;15377;48.540;9.268;2023-09-19T04:45:26;7.77;;;2.67;;
2644;SDS011;15377;48.540;9.268;2023-09-19T04:47:52;7.00;;;2.73;;
2644;SDS011;15377;48.540;9.268;2023-09-19T04:50:18;8.60;;;2.80;;
2644;SDS011;15377;48.540;9.268;2023-09-19T04:52:48;6.70;;;2.40;;
2644;SDS011;15377;48.540;9.268;2023-09-19T04:55:16;6.43;;;2.57;;
2644;SDS011;15377;48.540;9.268;2023-09-19T04:57:45;6.30;;;2.50;;
2644;SDS011;15377;48.540;9.268;2023-09-19T05:00:21;8.33;;;3.17;;
2644;SDS011;15377;48.540;9.268;2023-09-19T05:02:53;7.40;;;2.50;;
2644;SDS011;15377;48.540;9.268;2023-09-19T05:05:21;7.80;;;3.33;;
2644;SDS011;15377;48.540;9.268;2023-09-19T05:07:48;7.83;;;3.00;;
2644;SDS011;15377;48.540;9.268;2023-09-19T05:10:15;10.33;;;2.80;;
2644;SDS011;15377;48.540;9.268;2023-09-19T05:12:43;8.30;;;3.10;;
2644;SDS011;15377;48.540;9.268;2023-09-19T05:15:12;11.40;;;3.30;;
2644;SDS011;15377;48.540;9.268;2023-09-19T05:17:38;8.80;;;3.17;;
2644;SDS011;15377;48.540;9.268;2023-09-19T05:20:04;10.00;;;3.10;;
2644;SDS011;15377;48.540;9.268;2023-09-19T05:22:40;6.37;;;2.53;;
2644;SDS011;15377;48.540;9.268;2023-09-19T05:25:11;6.83;;;2.90;;
2644;SDS011;15377;48.540;9.268;2023-09-19T05:27:41;6.60;;;2.43;;
2644;SDS011;15377;48.540;9.268;2023-09-19T05:30:07;6.20;;;2.40;;
2644;SDS011;15377;48.540;9.268;2023-09-19T05:32:33;9.30;;;2.83;;
2644;SDS011;15377;48.540;9.268;2023-09-19T05:34:58;7.53;;;2.63;;
2644;SDS011;15377;48.540;9.268;2023-09-19T05:37:23;8.13;;;3.07;;
2644;SDS011;15377;48.540;9.268;2023-09-19T05:39:51;7.97;;;2.90;;
2644;SDS011;15377;48.540;9.268;2023-09-19T05:42:16;10.33;;;2.67;;
2644;SDS011;15377;48.540;9.268;2023-09-19T05:44:42;6.77;;;2.47;;
2644;SDS011;15377;48.540;9.268;2023-09-19T05:47:07;8.30;;;2.70;;
2644;SDS011;15377;48.540;9.268;2023-09-19T05:49:34;7.07;;;2.80;;
2644;SDS011;15377;48.540;9.268;2023-09-19T05:52:03;6.13;;;2.17;;
2644;SDS011;15377;48.540;9.268;2023-09-19T05:54:32;6.23;;;2.30;;
2644;SDS011;15377;48.540;9.268;2023-09-19T05:56:59;6.90;;;2.70;;
2644;SDS011;15377;48.540;9.268;2023-09-19T05:59:25;6.90;;;2.50;;
2644;SDS011;15377;48.540;9.268;2023-09-19T06:01:50;6.10;;;2.50;;
2644;SDS011;15377;48.540;9.268;2023-09-19T06:04:17;7.23;;;2.40;;
2644;SDS011;15377;48.540;9.268;2023-09-19T06:06:43;7.40;;;2.20;;
2644;SDS011;15377;48.540;9.268;2023-09-19T06:09:09;7.37;;;2.40;;
2644;SDS011;15377;48.540;9.268;2023-09-19T06:11:35;8.67;;;2.70;;
2644;SDS011;15377;48.540;9.268;2023-09-19T06:14:01;7.30;;;2.30;;
2644;SDS011;15377;48.540;9.268;2023-09-19T06:16:27;6.17;;;2.30;;
2644;SDS011;15377;48.540;9.268;2023-09-19T06:18:58;6.30;;;2.13;;
2644;SDS011;15377;48.540;9.268;2023-09-19T06:21:27;6.43;;;2.30;;
2644;SDS011;15377;48.540;9.268;2023-09-19T06:23:53;6.60;;;2.20;;
2644;SDS011;15377;48.540;9.268;2023-09-19T06:26:18;5.90;;;2.30;;
2644;SDS011;15377;48.540;9.268;2023-09-19T06:28:44;6.23;;;2.17;;
2644;SDS011;15377;48.540;9.268;2023-09-19T06:31:09;6.87;;;2.30;;
2644;SDS011;15377;48.540;9.268;2023-09-19T06:33:35;7.83;;;2.40;;
2644;SDS011;15377;48.540;9.268;2023-09-19T06:36:05;6.43;;;2.23;;
2644;SDS011;15377;48.540;9.268;2023-09-19T06:38:31;5.93;;;2.10;;
2644;SDS011;15377;48.540;9.268;2023-09-19T06:40:59;5.50;;;1.87;;
2644;SDS011;15377;48.540;9.268;2023-09-19T06:43:26;5.90;;;1.90;;
2644;SDS011;15377;48.540;9.268;2023-09-19T06:45:51;7.20;;;2.20;;
2644;SDS011;15377;48.540;9.268;2023-09-19T06:48:19;9.93;;;2.33;;
2644;SDS011;15377;48.540;9.268;2023-09-19T06:50:45;5.97;;;2.07;;
2644;SDS011;15377;48.540;9.268;2023-09-19T06:53:13;5.93;;;1.90;;
2644;SDS011;15377;48.540;9.268;2023-09-19T06:55:38;6.30;;;2.17;;
2644;SDS011;15377;48.540;9.268;2023-09-19T06:58:04;5.80;;;1.90;;
2644;SDS011;15377;48.540;9.268;2023-09-19T07:00:31;6.37;;;1.90;;
2644;SDS011;15377;48.540;9.268;2023-09-19T07:03:02;6.00;;;2.00;;
2644;SDS011;15377;48.540;9.268;2023-09-19T07:05:29;5.80;;;1.80;;
2644;SDS011;15377;48.540;9.268;2023-09-19T07:07:56;6.07;;;2.03;;
2644;SDS011;15377;48.540;9.268;2023-09-19T07:10:24;6.00;;;1.83;;
2644;SDS011;15377;48.540;9.268;2023-09-19T07:15:26;7.40;;;2.10;;
2644;SDS011;15377;48.540;9.268;2023-09-19T07:17:53;6.47;;;2.00;;
2644;SDS011;15377;48.540;9.268;2023-09-19T07:20:19;6.70;;;2.03;;
2644;SDS011;15377;48.540;9.268;2023-09-19T07:22:45;8.87;;;2.27;;
2644;SDS011;15377;48.540;9.268;2023-09-19T07:25:12;6.60;;;2.10;;
2644;SDS011;15377;48.540;9.268;2023-09-19T07:27:39;7.30;;;2.20;;
2644;SDS011;15377;48.540;9.268;2023-09-19T07:30:05;5.93;;;2.07;;
2644;SDS011;15377;48.540;9.268;2023-09-19T07:32:33;6.63;;;1.90;;
2644;SDS011;15377;48.540;9.268;2023-09-19T07:35:00;8.23;;;2.20;;
2644;SDS011;15377;48.540;9.268;2023-09-19T07:37:25;6.50;;;1.80;;
2644;SDS011;15377;48.540;9.268;2023-09-19T07:39:50;6.03;;;2.07;;
2644;SDS011;15377;48.540;9.268;2023-09-19T07:42:16;6.03;;;1.83;;
2644;SDS011;15377;48.540;9.268;2023-09-19T07:44:43;6.60;;;1.87;;
2644;SDS011;15377;48.540;9.268;2023-09-19T07:47:12;8.83;;;2.13;;
2644;SDS011;15377;48.540;9.268;2023-09-19T07:49:38;7.50;;;2.03;;
2644;SDS011;15377;48.540;9.268;2023-09-19T07:52:04;6.10;;;2.03;;
2644;SDS011;15377;48.540;9.268;2023-09-19T07:54:29;5.77;;;2.03;;
2644;SDS011;15377;48.540;9.268;2023-09-19T07:57:00;8.43;;;2.07;;
2644;SDS011;15377;48.540;9.268;2023-09-19T07:59:29;6.00;;;1.87;;
2644;SDS011;15377;48.540;9.268;2023-09-19T08:01:54;6.43;;;1.90;;
2644;SDS011;15377;48.540;9.268;2023-09-19T08:04:20;5.47;;;1.83;;
2644;SDS011;15377;48.540;9.268;2023-09-19T08:06:45;5.60;;;1.97;;
2644;SDS011;15377;48.540;9.268;2023-09-19T08:09:11;5.83;;;1.60;;
2644;SDS011;15377;48.540;9.268;2023-09-19T08:11:39;5.93;;;2.00;;
2644;SDS011;15377;48.540;9.268;2023-09-19T08:14:04;5.83;;;1.90;;
2644;SDS011;15377;48.540;9.268;2023-09-19T08:16:33;5.60;;;1.97;;
2644;SDS011;15377;48.540;9.268;2023-09-19T08:18:58;6.37;;;1.77;;
2644;SDS011;15377;48.540;9.268;2023-09-19T08:21:24;7.77;;;1.77;;
2644;SDS011;15377;48.540;9.268;2023-09-19T08:23:50;5.53;;;1.70;;
2644;SDS011;15377;48.540;9.268;2023-09-19T08:26:16;4.97;;;1.40;;
2644;SDS011;15377;48.540;9.268;2023-09-19T08:28:41;7.97;;;1.97;;
2644;SDS011;15377;48.540;9.268;2023-09-19T08:31:07;5.80;;;1.80;;
2644;SDS011;15377;48.540;9.268;2023-09-19T08:33:34;6.13;;;1.93;;
2644;SDS011;15377;48.540;9.268;2023-09-19T08:36:00;6.50;;;2.00;;
2644;SDS011;15377;48.540;9.268;2023-09-19T08:38:26;7.50;;;1.80;;
2644;SDS011;15377;48.540;9.268;2023-09-19T08:40:58;6.03;;;2.00;;
2644;SDS011;15377;48.540;9.268;2023-09-19T08:43:25;5.70;;;1.60;;
2644;SDS011;15377;48.540;9.268;2023-09-19T08:48:31;6.17;;;1.60;;
2644;SDS011;15377;48.540;9.268;2023-09-19T08:51:00;5.57;;;2.23;;
2644;SDS011;15377;48.540;9.268;2023-09-19T08:56:11;5.10;;;1.53;;
2644;SDS011;15377;48.540;9.268;2023-09-19T08:58:40;5.90;;;1.90;;
2644;SDS011;15377;48.540;9.268;2023-09-19T09:01:28;5.00;;;1.50;;
2644;SDS011;15377;48.540;9.268;2023-09-19T09:03:55;5.83;;;1.80;;
2644;SDS011;15377;48.540;9.268;2023-09-19T09:06:22;5.60;;;1.73;;
2644;SDS011;15377;48.540;9.268;2023-09-19T09:08:49;6.10;;;2.10;;
2644;SDS011;15377;48.540;9.268;2023-09-19T09:11:16;6.23;;;2.00;;
2644;SDS011;15377;48.540;9.268;2023-09-19T09:13:43;6.10;;;1.97;;
2644;SDS011;15377;48.540;9.268;2023-09-19T09:16:09;5.90;;;1.83;;
2644;SDS011;15377;48.540;9.268;2023-09-19T09:18:35;6.30;;;2.00;;
2644;SDS011;15377;48.540;9.268;2023-09-19T09:21:01;5.67;;;1.60;;
2644;SDS011;15377;48.540;9.268;2023-09-19T09:23:26;6.10;;;1.80;;
2644;SDS011;15377;48.540;9.268;2023-09-19T09:25:54;6.50;;;1.97;;
2644;SDS011;15377;48.540;9.268;2023-09-19T09:28:27;5.50;;;1.80;;
2644;SDS011;15377;48.540;9.268;2023-09-19T09:30:54;6.63;;;2.13;;
2644;SDS011;15377;48.540;9.268;2023-09-19T09:33:20;5.67;;;1.83;;
2644;SDS011;15377;48.540;9.268;2023-09-19T09:35:53;6.00;;;1.97;;
2644;SDS011;15377;48.540;9.268;2023-09-19T09:38:25;7.23;;;2.00;;
2644;SDS011;15377;48.540;9.268;2023-09-19T09:41:11;5.30;;;1.70;;
2644;SDS011;15377;48.540;9.268;2023-09-19T09:43:42;6.80;;;2.07;;
2644;SDS011;15377;48.540;9.268;2023-09-19T09:46:15;5.83;;;1.60;;
2644;SDS011;15377;48.540;9.268;2023-09-19T09:51:38;5.70;;;2.00;;
2644;SDS011;15377;48.540;9.268;2023-09-19T09:54:23;5.20;;;1.50;;
2644;SDS011;15377;48.540;9.268;2023-09-19T09:56:57;6.00;;;1.70;;
2644;SDS011;15377;48.540;9.268;2023-09-19T10:02:18;5.40;;;2.10;;
2644;SDS011;15377;48.540;9.268;2023-09-19T10:04:54;6.10;;;1.77;;
2644;SDS011;15377;48.540;9.268;2023-09-19T10:07:39;5.60;;;1.80;;
2644;SDS011;15377;48.540;9.268;2023-09-19T10:10:32;5.50;;;1.80;;
2644;SDS011;15377;48.540;9.268;2023-09-19T10:13:19;4.87;;;1.40;;
2644;SDS011;15377;48.540;9.268;2023-09-19T10:15:50;5.50;;;1.80;;
2644;SDS011;15377;48.540;9.268;2023-09-19T10:18:20;5.43;;;1.50;;
2644;SDS011;15377;48.540;9.268;2023-09-19T10:20:47;6.40;;;2.23;;
2644;SDS011;15377;48.540;9.268;2023-09-19T10:23:14;5.40;;;1.87;;
2644;SDS011;15377;48.540;9.268;2023-09-19T10:25:47;5.10;;;1.60;;
2644;SDS011;15377;48.540;9.268;2023-09-19T10:28:14;6.40;;;2.03;;
2644;SDS011;15377;48.540;9.268;2023-09-19T10:30:42;5.70;;;1.90;;
2644;SDS011;15377;48.540;9.268;2023-09-19T10:33:10;5.23;;;1.60;;
2644;SDS011;15377;48.540;9.268;2023-09-19T10:35:47;5.30;;;1.53;;
2644;SDS011;15377;48.540;9.268;2023-09-19T10:38:17;5.00;;;1.50;;
2644;SDS011;15377;48.540;9.268;2023-09-19T10:40:44;5.63;;;2.10;;
2644;SDS011;15377;48.540;9.268;2023-09-19T10:43:15;6.30;;;2.13;;
2644;SDS011;15377;48.540;9.268;2023-09-19T10:45:44;5.43;;;1.63;;
2644;SDS011;15377;48.540;9.268;2023-09-19T10:48:14;6.97;;;2.20;;
2644;SDS011;15377;48.540;9.268;2023-09-19T10:50:46;5.20;;;1.70;;
2644;SDS011;15377;48.540;9.268;2023-09-19T10:53:16;5.90;;;1.87;;
2644;SDS011;15377;48.540;9.268;2023-09-19T10:55:47;7.40;;;2.10;;
2644;SDS011;15377;48.540;9.268;2023-09-19T10:58:28;6.53;;;1.83;;
2644;SDS011;15377;48.540;9.268;2023-09-19T11:00:59;5.30;;;1.80;;
2644;SDS011;15377;48.540;9.268;2023-09-19T11:03:37;5.20;;;1.63;;
2644;SDS011;15377;48.540;9.268;2023-09-19T11:06:11;5.43;;;1.70;;
2644;SDS011;15377;48.540;9.268;2023-09-19T11:09:01;6.10;;;1.80;;
2644;SDS011;15377;48.540;9.268;2023-09-19T11:11:50;6.60;;;2.43;;
2644;SDS011;15377;48.540;9.268;2023-09-19T11:30:33;5.40;;;2.00;;
2644;SDS011;15377;48.540;9.268;2023-09-19T11:33:18;4.90;;;1.50;;
2644;SDS011;15377;48.540;9.268;2023-09-19T11:44:32;6.43;;;2.03;;
2644;SDS011;15377;48.540;9.268;2023-09-19T11:46:51;5.40;;;2.20;;
2644;SDS011;15377;48.540;9.268;2023-09-19T11:49:23;6.00;;;2.00;;
2644;SDS011;15377;48.540;9.268;2023-09-19T11:51:54;6.90;;;1.80;;
2644;SDS011;15377;48.540;9.268;2023-09-19T11:54:20;6.27;;;2.67;;
2644;SDS011;15377;48.540;9.268;2023-09-19T11:56:53;5.30;;;1.50;;
2644;SDS011;15377;48.540;9.268;2023-09-19T12:01:52;5.50;;;1.70;;
2644;SDS011;15377;48.540;9.268;2023-09-19T12:04:22;6.60;;;2.10;;
2644;SDS011;15377;48.540;9.268;2023-09-19T12:07:02;5.30;;;1.90;;
2644;SDS011;15377;48.540;9.268;2023-09-19T12:09:29;7.07;;;1.93;;
2644;SDS011;15377;48.540;9.268;2023-09-19T12:11:55;5.97;;;2.03;;
2644;SDS011;15377;48.540;9.268;2023-09-19T12:14:23;5.70;;;1.70;;
2644;SDS011;15377;48.540;9.268;2023-09-19T12:16:57;8.50;;;1.80;;
2644;SDS011;15377;48.540;9.268;2023-09-19T12:19:23;6.17;;;1.90;;
2644;SDS011;15377;48.540;9.268;2023-09-19T12:22:02;5.70;;;1.87;;
2644;SDS011;15377;48.540;9.268;2023-09-19T12:24:31;5.30;;;1.70;;
2644;SDS011;15377;48.540;9.268;2023-09-19T12:27:00;5.40;;;1.73;;
2644;SDS011;15377;48.540;9.268;2023-09-19T12:29:27;6.03;;;2.10;;
2644;SDS011;15377;48.540;9.268;2023-09-19T12:31:53;5.80;;;1.90;;
2644;SDS011;15377;48.540;9.268;2023-09-19T12:34:28;5.50;;;1.97;;
2644;SDS011;15377;48.540;9.268;2023-09-19T12:40:03;5.60;;;1.80;;
2644;SDS011;15377;48.540;9.268;2023-09-19T12:42:47;5.77;;;1.90;;
2644;SDS011;15377;48.540;9.268;2023-09-19T12:45:13;5.27;;;1.80;;
2644;SDS011;15377;48.540;9.268;2023-09-19T12:48:03;5.30;;;1.60;;
2644;SDS011;15377;48.540;9.268;2023-09-19T12:51:07;5.73;;;1.80;;
2644;SDS011;15377;48.540;9.268;2023-09-19T12:56:12;6.00;;;2.10;;
2644;SDS011;15377;48.540;9.268;2023-09-19T12:59:14;5.10;;;1.70;;
2644;SDS011;15377;48.540;9.268;2023-09-19T13:01:37;5.30;;;1.80;;
2644;SDS011;15377;48.540;9.268;2023-09-19T13:04:17;6.07;;;1.90;;
2644;SDS011;15377;48.540;9.268;2023-09-19T13:06:54;5.97;;;2.20;;
2644;SDS011;15377;48.540;9.268;2023-09-19T13:09:24;5.00;;;1.57;;
2644;SDS011;15377;48.540;9.268;2023-09-19T13:11:53;6.47;;;2.00;;
2644;SDS011;15377;48.540;9.268;2023-09-19T13:16:56;5.17;;;1.80;;
2644;SDS011;15377;48.540;9.268;2023-09-19T13:25:13;5.70;;;1.70;;
2644;SDS011;15377;48.540;9.268;2023-09-19T13:27:48;5.50;;;1.80;;
2644;SDS011;15377;48.540;9.268;2023-09-19T13:30:19;5.60;;;1.93;;
2644;SDS011;15377;48.540;9.268;2023-09-19T13:32:46;5.47;;;1.80;;
2644;SDS011;15377;48.540;9.268;2023-09-19T13:35:14;6.30;;;2.20;;
2644;SDS011;15377;48.540;9.268;2023-09-19T13:37:41;6.07;;;2.03;;
2644;SDS011;15377;48.540;9.268;2023-09-19T13:40:11;5.40;;;1.90;;
2644;SDS011;15377;48.540;9.268;2023-09-19T13:42:38;5.33;;;1.73;;
2644;SDS011;15377;48.540;9.268;2023-09-19T13:45:05;6.00;;;2.00;;
2644;SDS011;15377;48.540;9.268;2023-09-19T13:47:32;6.47;;;2.00;;
2644;SDS011;15377;48.540;9.268;2023-09-19T13:49:58;5.60;;;1.80;;
2644;SDS011;15377;48.540;9.268;2023-09-19T13:52:23;5.67;;;2.10;;
2644;SDS011;15377;48.540;9.268;2023-09-19T13:54:52;6.13;;;1.60;;
2644;SDS011;15377;48.540;9.268;2023-09-19T13:57:24;8.77;;;2.10;;
2644;SDS011;15377;48.540;9.268;2023-09-19T13:59:50;4.93;;;1.50;;
2644;SDS011;15377;48.540;9.268;2023-09-19T14:02:16;6.20;;;2.07;;
2644;SDS011;15377;48.540;9.268;2023-09-19T14:04:43;5.10;;;1.73;;
2644;SDS011;15377;48.540;9.268;2023-09-19T14:07:11;5.77;;;1.87;;
2644;SDS011;15377;48.540;9.268;2023-09-19T14:09:37;5.70;;;1.77;;
2644;SDS011;15377;48.540;9.268;2023-09-19T14:12:03;5.60;;;1.77;;
2644;SDS011;15377;48.540;9.268;2023-09-19T14:14:28;5.70;;;2.03;;
2644;SDS011;15377;48.540;9.268;2023-09-19T14:16:54;5.80;;;1.63;;
2644;SDS011;15377;48.540;9.268;2023-09-19T14:19:20;5.30;;;1.90;;
2644;SDS011;15377;48.540;9.268;2023-09-19T14:21:45;6.27;;;2.13;;
2644;SDS011;15377;48.540;9.268;2023-09-19T14:24:10;5.53;;;1.87;;
2644;SDS011;15377;48.540;9.268;2023-09-19T14:26:41;5.50;;;2.20;;
2644;SDS011;15377;48.540;9.268;2023-09-19T14:29:06;5.87;;;1.90;;
2644;SDS011;15377;48.540;9.268;2023-09-19T14:31:33;5.73;;;2.10;;
2644;SDS011;15377;48.540;9.268;2023-09-19T14:33:58;5.57;;;2.00;;
2644;SDS011;15377;48.540;9.268;2023-09-19T14:36:24;5.67;;;1.77;;
2644;SDS011;15377;48.540;9.268;2023-09-19T14:38:54;6.83;;;2.30;;
2644;SDS011;15377;48.540;9.268;2023-09-19T14:41:20;6.03;;;1.80;;
2644;SDS011;15377;48.540;9.268;2023-09-19T14:43:46;7.03;;;2.10;;
2644;SDS011;15377;48.540;9.268;2023-09-19T14:46:11;6.80;;;1.90;;
2644;SDS011;15377;48.540;9.268;2023-09-19T14:48:37;5.67;;;1.87;;
2644;SDS011;15377;48.540;9.268;2023-09-19T14:51:03;5.63;;;2.17;;
2644;SDS011;15377;48.540;9.268;2023-09-19T14:53:29;5.70;;;1.87;;
2644;SDS011;15377;48.540;9.268;2023-09-19T14:55:55;5.60;;;1.93;;
2644;SDS011;15377;48.540;9.268;2023-09-19T14:58:21;5.10;;;1.63;;
2644;SDS011;15377;48.540;9.268;2023-09-19T15:00:46;5.90;;;2.00;;
2644;SDS011;15377;48.540;9.268;2023-09-19T15:03:12;5.70;;;1.97;;
2644;SDS011;15377;48.540;9.268;2023-09-19T15:05:38;5.60;;;2.10;;
2644;SDS011;15377;48.540;9.268;2023-09-19T15:08:04;5.40;;;1.80;;
2644;SDS011;15377;48.540;9.268;2023-09-19T15:10:30;5.10;;;1.83;;
2644;SDS011;15377;48.540;9.268;2023-09-19T15:12:56;5.30;;;1.70;;
2644;SDS011;15377;48.540;9.268;2023-09-19T15:15:21;6.53;;;2.00;;
2644;SDS011;15377;48.540;9.268;2023-09-19T15:17:46;6.10;;;1.90;;
2644;SDS011;15377;48.540;9.268;2023-09-19T15:20:12;6.87;;;1.90;;
2644;SDS011;15377;48.540;9.268;2023-09-19T15:22:39;6.60;;;2.20;;
2644;SDS011;15377;48.540;9.268;2023-09-19T15:25:04;5.67;;;2.13;;
2644;SDS011;15377;48.540;9.268;2023-09-19T15:27:30;5.70;;;1.60;;
2644;SDS011;15377;48.540;9.268;2023-09-19T15:29:57;5.40;;;1.97;;
2644;SDS011;15377;48.540;9.268;2023-09-19T15:32:23;5.60;;;2.07;;
2644;SDS011;15377;48.540;9.268;2023-09-19T15:34:49;5.80;;;2.20;;
2644;SDS011;15377;48.540;9.268;2023-09-19T15:37:14;5.40;;;1.97;;
2644;SDS011;15377;48.540;9.268;2023-09-19T15:39:40;6.20;;;1.57;;
2644;SDS011;15377;48.540;9.268;2023-09-19T15:42:06;6.47;;;1.70;;
2644;SDS011;15377;48.540;9.268;2023-09-19T15:44:40;7.43;;;1.63;;
2644;SDS011;15377;48.540;9.268;2023-09-19T15:47:06;7.33;;;2.23;;
2644;SDS011;15377;48.540;9.268;2023-09-19T15:49:31;8.03;;;2.17;;
2644;SDS011;15377;48.540;9.268;2023-09-19T15:51:56;5.83;;;2.00;;
2644;SDS011;15377;48.540;9.268;2023-09-19T15:54:22;5.53;;;1.80;;
2644;SDS011;15377;48.540;9.268;2023-09-19T15:56:50;5.60;;;1.70;;
2644;SDS011;15377;48.540;9.268;2023-09-19T15:59:16;6.50;;;2.00;;
2644;SDS011;15377;48.540;9.268;2023-09-19T16:01:43;5.90;;;1.97;;
2644;SDS011;15377;48.540;9.268;2023-09-19T16:04:09;5.53;;;2.20;;
2644;SDS011;15377;48.540;9.268;2023-09-19T16:06:37;5.90;;;2.00;;
2644;SDS011;15377;48.540;9.268;2023-09-19T16:09:03;10.00;;;2.00;;
2644;SDS011;15377;48.540;9.268;2023-09-19T16:11:33;5.37;;;2.00;;
2644;SDS011;15377;48.540;9.268;2023-09-19T16:14:02;5.80;;;2.30;;
2644;SDS011;15377;48.540;9.268;2023-09-19T16:16:29;6.00;;;1.80;;